sensor_id;sensor_type;location;lat;lon;timestamp;P1;durP1;ratioP1;P2;durP2;ratioP2
59938;SDS011;45801;51.810;19.444;2023-06-22T00:01:19;24.50;;;21.40;;
59938;SDS011;45801;51.810;19.444;2023-06-22T00:03:47;24.10;;;21.60;;
59938;SDS011;45801;51.810;19.444;2023-06-22T00:06:13;25.00;;;22.10;;
59938;SDS011;45801;51.810;19.444;2023-06-22T00:08:40;24.30;;;21.80;;
59938;SDS011;45801;51.810;19.444;2023-06-22T00:11:07;24.60;;;21.90;;
59938;SDS011;45801;51.810;19.444;2023-06-22T00:13:33;23.40;;;20.90;;
59938;SDS011;45801;51.810;19.444;2023-06-22T00:16:02;23.90;;;21.20;;
59938;SDS011;45801;51.810;19.444;2023-06-22T00:18:29;23.90;;;21.50;;
59938;SDS011;45801;51.810;19.444;2023-06-22T00:20:56;24.10;;;21.60;;
59938;SDS011;45801;51.810;19.444;2023-06-22T00:23:24;26.20;;;23.50;;
59938;SDS011;45801;51.810;19.444;2023-06-22T00:25:51;26.20;;;23.00;;
59938;SDS011;45801;51.810;19.444;2023-06-22T00:28:18;24.80;;;22.10;;
59938;SDS011;45801;51.810;19.444;2023-06-22T00:30:44;24.60;;;21.50;;
59938;SDS011;45801;51.810;19.444;2023-06-22T00:33:12;25.90;;;23.10;;
59938;SDS011;45801;51.810;19.444;2023-06-22T00:35:38;24.70;;;22.10;;
59938;SDS011;45801;51.810;19.444;2023-06-22T00:38:07;25.60;;;23.00;;
59938;SDS011;45801;51.810;19.444;2023-06-22T00:40:34;25.90;;;23.20;;
59938;SDS011;45801;51.810;19.444;2023-06-22T00:43:01;26.40;;;23.30;;
59938;SDS011;45801;51.810;19.444;2023-06-22T00:45:28;25.60;;;22.90;;
59938;SDS011;45801;51.810;19.444;2023-06-22T00:47:58;26.70;;;22.80;;
59938;SDS011;45801;51.810;19.444;2023-06-22T00:50:26;28.20;;;24.30;;
59938;SDS011;45801;51.810;19.444;2023-06-22T00:52:55;26.60;;;23.50;;
59938;SDS011;45801;51.810;19.444;2023-06-22T00:55:23;26.80;;;23.80;;
59938;SDS011;45801;51.810;19.444;2023-06-22T00:57:52;26.30;;;23.40;;
59938;SDS011;45801;51.810;19.444;2023-06-22T01:00:23;29.00;;;25.00;;
59938;SDS011;45801;51.810;19.444;2023-06-22T01:02:51;26.80;;;23.80;;
59938;SDS011;45801;51.810;19.444;2023-06-22T01:05:20;26.80;;;23.80;;
59938;SDS011;45801;51.810;19.444;2023-06-22T01:08:05;28.20;;;25.30;;
59938;SDS011;45801;51.810;19.444;2023-06-22T01:13:29;26.40;;;23.50;;
59938;SDS011;45801;51.810;19.444;2023-06-22T01:16:05;28.10;;;24.30;;
59938;SDS011;45801;51.810;19.444;2023-06-22T01:21:51;26.90;;;23.30;;
59938;SDS011;45801;51.810;19.444;2023-06-22T01:24:26;26.90;;;23.70;;
59938;SDS011;45801;51.810;19.444;2023-06-22T01:27:08;24.30;;;21.70;;
59938;SDS011;45801;51.810;19.444;2023-06-22T01:29:57;24.00;;;21.40;;
59938;SDS011;45801;51.810;19.444;2023-06-22T01:32:28;25.20;;;21.90;;
59938;SDS011;45801;51.810;19.444;2023-06-22T01:34:58;27.00;;;22.00;;
59938;SDS011;45801;51.810;19.444;2023-06-22T01:37:27;24.90;;;22.20;;
59938;SDS011;45801;51.810;19.444;2023-06-22T01:39:55;23.60;;;21.00;;
59938;SDS011;45801;51.810;19.444;2023-06-22T01:42:23;25.70;;;22.60;;
59938;SDS011;45801;51.810;19.444;2023-06-22T01:44:52;23.60;;;20.30;;
59938;SDS011;45801;51.810;19.444;2023-06-22T01:47:20;23.10;;;20.10;;
59938;SDS011;45801;51.810;19.444;2023-06-22T01:49:48;22.40;;;20.00;;
59938;SDS011;45801;51.810;19.444;2023-06-22T01:52:15;24.50;;;20.50;;
59938;SDS011;45801;51.810;19.444;2023-06-22T01:54:42;25.60;;;20.90;;
59938;SDS011;45801;51.810;19.444;2023-06-22T01:57:08;25.20;;;20.30;;
59938;SDS011;45801;51.810;19.444;2023-06-22T01:59:47;23.90;;;21.20;;
59938;SDS011;45801;51.810;19.444;2023-06-22T02:05:00;22.40;;;19.50;;
59938;SDS011;45801;51.810;19.444;2023-06-22T02:07:32;22.10;;;19.70;;
59938;SDS011;45801;51.810;19.444;2023-06-22T02:10:04;23.80;;;20.00;;
59938;SDS011;45801;51.810;19.444;2023-06-22T02:12:33;23.20;;;19.70;;
59938;SDS011;45801;51.810;19.444;2023-06-22T02:15:02;24.30;;;20.00;;
59938;SDS011;45801;51.810;19.444;2023-06-22T02:17:28;24.10;;;19.50;;
59938;SDS011;45801;51.810;19.444;2023-06-22T02:20:00;22.80;;;18.60;;
59938;SDS011;45801;51.810;19.444;2023-06-22T02:22:30;20.70;;;18.50;;
59938;SDS011;45801;51.810;19.444;2023-06-22T02:24:57;22.00;;;18.20;;
59938;SDS011;45801;51.810;19.444;2023-06-22T02:27:24;22.70;;;19.00;;
59938;SDS011;45801;51.810;19.444;2023-06-22T02:29:52;21.20;;;17.90;;
59938;SDS011;45801;51.810;19.444;2023-06-22T02:32:18;22.00;;;19.20;;
59938;SDS011;45801;51.810;19.444;2023-06-22T02:34:45;21.20;;;18.20;;
59938;SDS011;45801;51.810;19.444;2023-06-22T02:37:14;21.20;;;18.00;;
59938;SDS011;45801;51.810;19.444;2023-06-22T02:39:41;22.40;;;18.40;;
59938;SDS011;45801;51.810;19.444;2023-06-22T02:42:07;22.60;;;18.30;;
59938;SDS011;45801;51.810;19.444;2023-06-22T02:44:34;21.10;;;17.50;;
59938;SDS011;45801;51.810;19.444;2023-06-22T02:47:01;20.90;;;17.70;;
59938;SDS011;45801;51.810;19.444;2023-06-22T02:49:28;20.30;;;17.40;;
59938;SDS011;45801;51.810;19.444;2023-06-22T02:51:54;22.00;;;18.40;;
59938;SDS011;45801;51.810;19.444;2023-06-22T02:54:21;21.30;;;17.00;;
59938;SDS011;45801;51.810;19.444;2023-06-22T02:56:48;20.90;;;17.70;;
59938;SDS011;45801;51.810;19.444;2023-06-22T02:59:14;19.50;;;17.20;;
59938;SDS011;45801;51.810;19.444;2023-06-22T03:01:41;19.30;;;17.00;;
59938;SDS011;45801;51.810;19.444;2023-06-22T03:04:07;20.70;;;17.50;;
59938;SDS011;45801;51.810;19.444;2023-06-22T03:06:35;21.30;;;17.30;;
59938;SDS011;45801;51.810;19.444;2023-06-22T03:09:03;19.40;;;16.70;;
59938;SDS011;45801;51.810;19.444;2023-06-22T03:11:31;20.60;;;15.50;;
59938;SDS011;45801;51.810;19.444;2023-06-22T03:13:58;20.60;;;16.80;;
59938;SDS011;45801;51.810;19.444;2023-06-22T03:16:26;18.70;;;15.30;;
59938;SDS011;45801;51.810;19.444;2023-06-22T03:18:53;19.80;;;16.00;;
59938;SDS011;45801;51.810;19.444;2023-06-22T03:21:21;19.10;;;15.20;;
59938;SDS011;45801;51.810;19.444;2023-06-22T03:23:49;18.90;;;15.30;;
59938;SDS011;45801;51.810;19.444;2023-06-22T03:26:18;19.50;;;14.60;;
59938;SDS011;45801;51.810;19.444;2023-06-22T03:28:45;18.20;;;14.40;;
59938;SDS011;45801;51.810;19.444;2023-06-22T03:31:12;18.60;;;13.80;;
59938;SDS011;45801;51.810;19.444;2023-06-22T03:33:39;17.30;;;14.00;;
59938;SDS011;45801;51.810;19.444;2023-06-22T03:36:06;17.00;;;13.20;;
59938;SDS011;45801;51.810;19.444;2023-06-22T03:38:33;16.50;;;13.00;;
59938;SDS011;45801;51.810;19.444;2023-06-22T03:41:00;16.40;;;12.90;;
59938;SDS011;45801;51.810;19.444;2023-06-22T03:43:26;16.50;;;13.00;;
59938;SDS011;45801;51.810;19.444;2023-06-22T03:45:53;16.10;;;13.10;;
59938;SDS011;45801;51.810;19.444;2023-06-22T03:48:19;17.90;;;12.80;;
59938;SDS011;45801;51.810;19.444;2023-06-22T03:50:46;16.60;;;12.90;;
59938;SDS011;45801;51.810;19.444;2023-06-22T03:53:12;16.30;;;13.50;;
59938;SDS011;45801;51.810;19.444;2023-06-22T03:55:42;18.10;;;13.30;;
59938;SDS011;45801;51.810;19.444;2023-06-22T03:58:15;15.30;;;13.40;;
59938;SDS011;45801;51.810;19.444;2023-06-22T04:00:41;17.10;;;12.70;;
59938;SDS011;45801;51.810;19.444;2023-06-22T04:03:08;16.30;;;12.90;;
59938;SDS011;45801;51.810;19.444;2023-06-22T04:05:41;15.50;;;12.50;;
59938;SDS011;45801;51.810;19.444;2023-06-22T04:08:08;16.30;;;12.40;;
59938;SDS011;45801;51.810;19.444;2023-06-22T04:10:34;16.50;;;12.70;;
59938;SDS011;45801;51.810;19.444;2023-06-22T04:13:01;15.70;;;12.20;;
59938;SDS011;45801;51.810;19.444;2023-06-22T04:15:27;15.40;;;12.30;;
59938;SDS011;45801;51.810;19.444;2023-06-22T04:17:54;16.00;;;11.30;;
59938;SDS011;45801;51.810;19.444;2023-06-22T04:20:22;14.50;;;11.90;;
59938;SDS011;45801;51.810;19.444;2023-06-22T04:22:49;14.60;;;10.10;;
59938;SDS011;45801;51.810;19.444;2023-06-22T04:25:15;14.40;;;11.20;;
59938;SDS011;45801;51.810;19.444;2023-06-22T04:27:42;15.10;;;11.40;;
59938;SDS011;45801;51.810;19.444;2023-06-22T04:30:08;15.20;;;10.80;;
59938;SDS011;45801;51.810;19.444;2023-06-22T04:32:35;14.60;;;10.90;;
59938;SDS011;45801;51.810;19.444;2023-06-22T04:35:05;14.30;;;11.60;;
59938;SDS011;45801;51.810;19.444;2023-06-22T04:37:33;14.40;;;11.00;;
59938;SDS011;45801;51.810;19.444;2023-06-22T04:40:00;14.70;;;10.90;;
59938;SDS011;45801;51.810;19.444;2023-06-22T04:42:26;14.70;;;10.20;;
59938;SDS011;45801;51.810;19.444;2023-06-22T04:44:53;13.00;;;9.90;;
59938;SDS011;45801;51.810;19.444;2023-06-22T04:47:20;13.00;;;9.90;;
59938;SDS011;45801;51.810;19.444;2023-06-22T04:49:46;13.30;;;10.20;;
59938;SDS011;45801;51.810;19.444;2023-06-22T04:52:13;14.50;;;10.30;;
59938;SDS011;45801;51.810;19.444;2023-06-22T04:54:44;13.80;;;9.60;;
59938;SDS011;45801;51.810;19.444;2023-06-22T04:57:14;13.40;;;9.50;;
59938;SDS011;45801;51.810;19.444;2023-06-22T04:59:40;12.90;;;9.10;;
59938;SDS011;45801;51.810;19.444;2023-06-22T05:02:08;14.00;;;10.10;;
59938;SDS011;45801;51.810;19.444;2023-06-22T05:04:34;14.20;;;9.50;;
59938;SDS011;45801;51.810;19.444;2023-06-22T05:09:33;14.30;;;9.90;;
59938;SDS011;45801;51.810;19.444;2023-06-22T05:12:01;13.50;;;9.30;;
59938;SDS011;45801;51.810;19.444;2023-06-22T05:14:29;15.10;;;9.90;;
59938;SDS011;45801;51.810;19.444;2023-06-22T05:16:56;14.20;;;9.90;;
59938;SDS011;45801;51.810;19.444;2023-06-22T05:19:25;14.80;;;9.50;;
59938;SDS011;45801;51.810;19.444;2023-06-22T05:21:57;12.40;;;8.60;;
59938;SDS011;45801;51.810;19.444;2023-06-22T05:24:24;13.20;;;9.50;;
59938;SDS011;45801;51.810;19.444;2023-06-22T05:26:50;13.90;;;9.40;;
59938;SDS011;45801;51.810;19.444;2023-06-22T05:29:16;14.80;;;9.90;;
59938;SDS011;45801;51.810;19.444;2023-06-22T05:31:43;14.20;;;9.10;;
59938;SDS011;45801;51.810;19.444;2023-06-22T05:34:09;14.50;;;10.30;;
59938;SDS011;45801;51.810;19.444;2023-06-22T05:36:36;13.80;;;9.60;;
59938;SDS011;45801;51.810;19.444;2023-06-22T05:39:10;13.90;;;9.00;;
59938;SDS011;45801;51.810;19.444;2023-06-22T05:41:38;12.90;;;9.70;;
59938;SDS011;45801;51.810;19.444;2023-06-22T05:44:05;15.20;;;9.20;;
59938;SDS011;45801;51.810;19.444;2023-06-22T05:46:32;13.00;;;9.40;;
59938;SDS011;45801;51.810;19.444;2023-06-22T05:48:59;13.50;;;9.00;;
59938;SDS011;45801;51.810;19.444;2023-06-22T05:51:25;13.10;;;8.60;;
59938;SDS011;45801;51.810;19.444;2023-06-22T05:53:52;14.20;;;9.50;;
59938;SDS011;45801;51.810;19.444;2023-06-22T05:56:18;13.00;;;9.40;;
59938;SDS011;45801;51.810;19.444;2023-06-22T05:58:45;12.50;;;9.40;;
59938;SDS011;45801;51.810;19.444;2023-06-22T06:01:12;12.50;;;8.70;;
59938;SDS011;45801;51.810;19.444;2023-06-22T06:03:41;13.90;;;8.80;;
59938;SDS011;45801;51.810;19.444;2023-06-22T06:06:08;13.80;;;9.30;;
59938;SDS011;45801;51.810;19.444;2023-06-22T06:08:34;12.70;;;8.70;;
59938;SDS011;45801;51.810;19.444;2023-06-22T06:11:01;12.90;;;8.40;;
59938;SDS011;45801;51.810;19.444;2023-06-22T06:13:27;14.60;;;8.60;;
59938;SDS011;45801;51.810;19.444;2023-06-22T06:15:54;16.40;;;8.60;;
59938;SDS011;45801;51.810;19.444;2023-06-22T06:18:23;13.00;;;8.00;;
59938;SDS011;45801;51.810;19.444;2023-06-22T06:20:49;12.10;;;7.70;;
59938;SDS011;45801;51.810;19.444;2023-06-22T06:23:16;13.80;;;6.80;;
59938;SDS011;45801;51.810;19.444;2023-06-22T06:25:42;11.70;;;7.10;;
59938;SDS011;45801;51.810;19.444;2023-06-22T06:28:09;11.30;;;7.00;;
59938;SDS011;45801;51.810;19.444;2023-06-22T06:30:36;11.70;;;7.00;;
59938;SDS011;45801;51.810;19.444;2023-06-22T06:33:03;12.90;;;7.00;;
59938;SDS011;45801;51.810;19.444;2023-06-22T06:35:35;12.60;;;7.80;;
59938;SDS011;45801;51.810;19.444;2023-06-22T06:38:02;9.90;;;6.30;;
59938;SDS011;45801;51.810;19.444;2023-06-22T06:40:28;11.30;;;6.90;;
59938;SDS011;45801;51.810;19.444;2023-06-22T06:42:55;11.90;;;6.30;;
59938;SDS011;45801;51.810;19.444;2023-06-22T06:45:22;11.80;;;6.50;;
59938;SDS011;45801;51.810;19.444;2023-06-22T06:47:50;10.50;;;6.10;;
59938;SDS011;45801;51.810;19.444;2023-06-22T06:50:17;12.20;;;6.80;;
59938;SDS011;45801;51.810;19.444;2023-06-22T06:52:44;11.20;;;6.40;;
59938;SDS011;45801;51.810;19.444;2023-06-22T06:55:11;11.90;;;6.80;;
59938;SDS011;45801;51.810;19.444;2023-06-22T06:57:38;9.80;;;5.90;;
59938;SDS011;45801;51.810;19.444;2023-06-22T07:00:09;10.80;;;6.00;;
59938;SDS011;45801;51.810;19.444;2023-06-22T07:02:38;11.30;;;6.90;;
59938;SDS011;45801;51.810;19.444;2023-06-22T07:05:09;10.00;;;6.10;;
59938;SDS011;45801;51.810;19.444;2023-06-22T07:07:37;10.70;;;5.80;;
59938;SDS011;45801;51.810;19.444;2023-06-22T07:10:07;9.80;;;5.50;;
59938;SDS011;45801;51.810;19.444;2023-06-22T07:12:34;9.10;;;5.90;;
59938;SDS011;45801;51.810;19.444;2023-06-22T07:15:08;9.00;;;4.90;;
59938;SDS011;45801;51.810;19.444;2023-06-22T07:17:35;9.70;;;5.10;;
59938;SDS011;45801;51.810;19.444;2023-06-22T07:20:03;11.10;;;4.40;;
59938;SDS011;45801;51.810;19.444;2023-06-22T07:22:39;12.50;;;4.70;;
59938;SDS011;45801;51.810;19.444;2023-06-22T07:25:08;8.50;;;4.20;;
59938;SDS011;45801;51.810;19.444;2023-06-22T07:27:38;9.70;;;4.90;;
59938;SDS011;45801;51.810;19.444;2023-06-22T07:30:09;7.70;;;4.20;;
59938;SDS011;45801;51.810;19.444;2023-06-22T07:32:36;7.40;;;4.00;;
59938;SDS011;45801;51.810;19.444;2023-06-22T07:35:03;7.80;;;3.80;;
59938;SDS011;45801;51.810;19.444;2023-06-22T07:37:30;7.00;;;3.40;;
59938;SDS011;45801;51.810;19.444;2023-06-22T07:39:59;8.50;;;3.70;;
59938;SDS011;45801;51.810;19.444;2023-06-22T07:42:26;8.10;;;4.00;;
59938;SDS011;45801;51.810;19.444;2023-06-22T07:44:53;8.80;;;3.90;;
59938;SDS011;45801;51.810;19.444;2023-06-22T07:47:20;7.90;;;3.70;;
59938;SDS011;45801;51.810;19.444;2023-06-22T07:49:51;8.50;;;4.00;;
59938;SDS011;45801;51.810;19.444;2023-06-22T07:52:18;9.10;;;4.00;;
59938;SDS011;45801;51.810;19.444;2023-06-22T07:54:44;9.80;;;4.70;;
59938;SDS011;45801;51.810;19.444;2023-06-22T07:57:12;9.80;;;4.50;;
59938;SDS011;45801;51.810;19.444;2023-06-22T07:59:39;8.20;;;4.30;;
59938;SDS011;45801;51.810;19.444;2023-06-22T08:02:05;8.00;;;4.00;;
59938;SDS011;45801;51.810;19.444;2023-06-22T08:04:32;7.90;;;3.70;;
59938;SDS011;45801;51.810;19.444;2023-06-22T08:07:01;9.50;;;4.10;;
59938;SDS011;45801;51.810;19.444;2023-06-22T08:09:28;10.00;;;4.00;;
59938;SDS011;45801;51.810;19.444;2023-06-22T08:11:58;7.10;;;3.50;;
59938;SDS011;45801;51.810;19.444;2023-06-22T08:14:29;8.50;;;4.00;;
59938;SDS011;45801;51.810;19.444;2023-06-22T08:16:56;8.60;;;3.90;;
59938;SDS011;45801;51.810;19.444;2023-06-22T08:19:23;8.70;;;3.90;;
59938;SDS011;45801;51.810;19.444;2023-06-22T08:21:50;8.20;;;3.80;;
59938;SDS011;45801;51.810;19.444;2023-06-22T08:24:17;7.40;;;4.00;;
59938;SDS011;45801;51.810;19.444;2023-06-22T08:26:43;8.00;;;3.90;;
59938;SDS011;45801;51.810;19.444;2023-06-22T08:29:09;7.40;;;3.50;;
59938;SDS011;45801;51.810;19.444;2023-06-22T08:31:36;6.60;;;3.40;;
59938;SDS011;45801;51.810;19.444;2023-06-22T08:34:03;8.50;;;3.60;;
59938;SDS011;45801;51.810;19.444;2023-06-22T08:36:30;8.90;;;3.70;;
59938;SDS011;45801;51.810;19.444;2023-06-22T08:38:58;8.60;;;3.60;;
59938;SDS011;45801;51.810;19.444;2023-06-22T08:41:27;9.80;;;3.60;;
59938;SDS011;45801;51.810;19.444;2023-06-22T08:43:54;7.20;;;3.90;;
59938;SDS011;45801;51.810;19.444;2023-06-22T08:46:21;8.10;;;3.40;;
59938;SDS011;45801;51.810;19.444;2023-06-22T08:48:49;6.90;;;3.40;;
59938;SDS011;45801;51.810;19.444;2023-06-22T08:51:16;7.20;;;3.40;;
59938;SDS011;45801;51.810;19.444;2023-06-22T08:53:43;7.10;;;3.40;;
59938;SDS011;45801;51.810;19.444;2023-06-22T08:56:11;7.70;;;3.20;;
59938;SDS011;45801;51.810;19.444;2023-06-22T08:58:38;7.00;;;3.90;;
59938;SDS011;45801;51.810;19.444;2023-06-22T09:01:06;8.10;;;3.10;;
59938;SDS011;45801;51.810;19.444;2023-06-22T09:03:33;7.60;;;3.20;;
59938;SDS011;45801;51.810;19.444;2023-06-22T09:06:02;6.40;;;2.70;;
59938;SDS011;45801;51.810;19.444;2023-06-22T09:08:29;6.20;;;3.10;;
59938;SDS011;45801;51.810;19.444;2023-06-22T09:10:56;6.70;;;2.90;;
59938;SDS011;45801;51.810;19.444;2023-06-22T09:13:22;7.10;;;2.70;;
59938;SDS011;45801;51.810;19.444;2023-06-22T09:15:48;7.10;;;2.70;;
59938;SDS011;45801;51.810;19.444;2023-06-22T09:18:15;6.50;;;2.80;;
59938;SDS011;45801;51.810;19.444;2023-06-22T09:20:41;7.00;;;2.50;;
59938;SDS011;45801;51.810;19.444;2023-06-22T09:23:08;6.30;;;2.30;;
59938;SDS011;45801;51.810;19.444;2023-06-22T09:25:34;5.70;;;2.40;;
59938;SDS011;45801;51.810;19.444;2023-06-22T09:28:01;10.10;;;2.90;;
59938;SDS011;45801;51.810;19.444;2023-06-22T09:30:27;5.90;;;2.50;;
59938;SDS011;45801;51.810;19.444;2023-06-22T09:32:54;6.00;;;2.50;;
59938;SDS011;45801;51.810;19.444;2023-06-22T09:35:20;6.20;;;2.70;;
59938;SDS011;45801;51.810;19.444;2023-06-22T09:37:47;6.70;;;2.60;;
59938;SDS011;45801;51.810;19.444;2023-06-22T09:40:13;6.70;;;2.80;;
59938;SDS011;45801;51.810;19.444;2023-06-22T09:42:42;7.00;;;2.80;;
59938;SDS011;45801;51.810;19.444;2023-06-22T09:45:09;6.80;;;2.50;;
59938;SDS011;45801;51.810;19.444;2023-06-22T09:47:36;7.10;;;2.80;;
59938;SDS011;45801;51.810;19.444;2023-06-22T09:50:03;7.50;;;2.70;;
59938;SDS011;45801;51.810;19.444;2023-06-22T09:52:30;6.30;;;2.40;;
59938;SDS011;45801;51.810;19.444;2023-06-22T09:54:56;6.80;;;2.70;;
59938;SDS011;45801;51.810;19.444;2023-06-22T09:57:23;6.00;;;2.70;;
59938;SDS011;45801;51.810;19.444;2023-06-22T09:59:49;6.30;;;2.40;;
59938;SDS011;45801;51.810;19.444;2023-06-22T10:02:16;5.90;;;2.30;;
59938;SDS011;45801;51.810;19.444;2023-06-22T10:04:43;6.40;;;2.40;;
59938;SDS011;45801;51.810;19.444;2023-06-22T10:07:10;5.80;;;2.00;;
59938;SDS011;45801;51.810;19.444;2023-06-22T10:09:36;5.80;;;2.40;;
59938;SDS011;45801;51.810;19.444;2023-06-22T10:12:03;6.40;;;2.60;;
59938;SDS011;45801;51.810;19.444;2023-06-22T10:14:29;6.50;;;2.10;;
59938;SDS011;45801;51.810;19.444;2023-06-22T10:16:56;6.20;;;2.40;;
59938;SDS011;45801;51.810;19.444;2023-06-22T10:19:22;5.10;;;2.00;;
59938;SDS011;45801;51.810;19.444;2023-06-22T10:21:49;6.50;;;2.40;;
59938;SDS011;45801;51.810;19.444;2023-06-22T10:24:15;5.90;;;2.50;;
59938;SDS011;45801;51.810;19.444;2023-06-22T10:26:42;6.40;;;2.60;;
59938;SDS011;45801;51.810;19.444;2023-06-22T10:29:08;7.60;;;2.50;;
59938;SDS011;45801;51.810;19.444;2023-06-22T10:31:35;7.90;;;2.90;;
59938;SDS011;45801;51.810;19.444;2023-06-22T10:34:01;6.20;;;2.60;;
59938;SDS011;45801;51.810;19.444;2023-06-22T10:36:28;7.50;;;3.00;;
59938;SDS011;45801;51.810;19.444;2023-06-22T10:38:54;7.90;;;2.60;;
59938;SDS011;45801;51.810;19.444;2023-06-22T10:41:21;5.90;;;2.60;;
59938;SDS011;45801;51.810;19.444;2023-06-22T10:43:48;7.00;;;3.00;;
59938;SDS011;45801;51.810;19.444;2023-06-22T10:46:14;6.30;;;2.60;;
59938;SDS011;45801;51.810;19.444;2023-06-22T10:48:41;7.40;;;2.70;;
59938;SDS011;45801;51.810;19.444;2023-06-22T10:51:09;7.00;;;2.90;;
59938;SDS011;45801;51.810;19.444;2023-06-22T10:53:35;7.20;;;2.50;;
59938;SDS011;45801;51.810;19.444;2023-06-22T10:56:01;5.00;;;2.30;;
59938;SDS011;45801;51.810;19.444;2023-06-22T10:58:28;6.20;;;2.60;;
59938;SDS011;45801;51.810;19.444;2023-06-22T11:00:54;7.30;;;2.50;;
59938;SDS011;45801;51.810;19.444;2023-06-22T11:03:21;7.30;;;2.40;;
59938;SDS011;45801;51.810;19.444;2023-06-22T11:05:47;6.30;;;2.40;;
59938;SDS011;45801;51.810;19.444;2023-06-22T11:08:14;5.80;;;2.50;;
59938;SDS011;45801;51.810;19.444;2023-06-22T11:10:41;5.60;;;2.60;;
59938;SDS011;45801;51.810;19.444;2023-06-22T11:13:07;6.60;;;2.80;;
59938;SDS011;45801;51.810;19.444;2023-06-22T11:15:36;6.30;;;2.60;;
59938;SDS011;45801;51.810;19.444;2023-06-22T11:18:03;6.20;;;2.50;;
59938;SDS011;45801;51.810;19.444;2023-06-22T11:20:31;6.90;;;2.60;;
59938;SDS011;45801;51.810;19.444;2023-06-22T11:22:59;8.10;;;3.10;;
59938;SDS011;45801;51.810;19.444;2023-06-22T11:25:26;5.50;;;2.40;;
59938;SDS011;45801;51.810;19.444;2023-06-22T11:27:52;5.60;;;2.20;;
59938;SDS011;45801;51.810;19.444;2023-06-22T11:30:20;5.90;;;2.40;;
59938;SDS011;45801;51.810;19.444;2023-06-22T11:32:46;5.30;;;2.20;;
59938;SDS011;45801;51.810;19.444;2023-06-22T11:35:13;4.90;;;2.10;;
59938;SDS011;45801;51.810;19.444;2023-06-22T11:37:39;7.20;;;2.70;;
59938;SDS011;45801;51.810;19.444;2023-06-22T11:40:06;6.60;;;2.60;;
59938;SDS011;45801;51.810;19.444;2023-06-22T11:42:35;6.20;;;2.70;;
59938;SDS011;45801;51.810;19.444;2023-06-22T11:45:01;5.30;;;2.50;;
59938;SDS011;45801;51.810;19.444;2023-06-22T11:47:29;6.50;;;2.50;;
59938;SDS011;45801;51.810;19.444;2023-06-22T11:49:55;6.10;;;2.50;;
59938;SDS011;45801;51.810;19.444;2023-06-22T11:52:22;6.20;;;2.50;;
59938;SDS011;45801;51.810;19.444;2023-06-22T11:54:48;8.50;;;2.50;;
59938;SDS011;45801;51.810;19.444;2023-06-22T11:57:15;6.10;;;2.90;;
59938;SDS011;45801;51.810;19.444;2023-06-22T11:59:41;7.40;;;3.10;;
59938;SDS011;45801;51.810;19.444;2023-06-22T12:02:08;5.00;;;2.10;;
59938;SDS011;45801;51.810;19.444;2023-06-22T12:04:35;6.20;;;2.50;;
59938;SDS011;45801;51.810;19.444;2023-06-22T12:07:02;6.10;;;2.30;;
59938;SDS011;45801;51.810;19.444;2023-06-22T12:09:29;6.90;;;2.80;;
59938;SDS011;45801;51.810;19.444;2023-06-22T12:11:56;6.70;;;2.50;;
59938;SDS011;45801;51.810;19.444;2023-06-22T12:14:22;5.90;;;2.90;;
59938;SDS011;45801;51.810;19.444;2023-06-22T12:16:49;7.10;;;2.90;;
59938;SDS011;45801;51.810;19.444;2023-06-22T12:19:15;5.60;;;2.50;;
59938;SDS011;45801;51.810;19.444;2023-06-22T12:21:42;7.00;;;2.90;;
59938;SDS011;45801;51.810;19.444;2023-06-22T12:24:11;6.60;;;3.00;;
59938;SDS011;45801;51.810;19.444;2023-06-22T12:26:39;6.70;;;2.50;;
59938;SDS011;45801;51.810;19.444;2023-06-22T12:29:05;7.70;;;3.30;;
59938;SDS011;45801;51.810;19.444;2023-06-22T12:31:32;7.80;;;3.30;;
59938;SDS011;45801;51.810;19.444;2023-06-22T12:33:59;5.90;;;3.00;;
59938;SDS011;45801;51.810;19.444;2023-06-22T12:36:25;7.80;;;3.30;;
59938;SDS011;45801;51.810;19.444;2023-06-22T12:38:51;6.60;;;3.00;;
59938;SDS011;45801;51.810;19.444;2023-06-22T12:41:18;6.50;;;2.80;;
59938;SDS011;45801;51.810;19.444;2023-06-22T12:43:44;8.50;;;3.60;;
59938;SDS011;45801;51.810;19.444;2023-06-22T12:46:11;7.60;;;3.10;;
59938;SDS011;45801;51.810;19.444;2023-06-22T12:48:37;9.10;;;3.50;;
59938;SDS011;45801;51.810;19.444;2023-06-22T12:51:08;6.50;;;2.70;;
59938;SDS011;45801;51.810;19.444;2023-06-22T12:53:35;6.50;;;2.80;;
59938;SDS011;45801;51.810;19.444;2023-06-22T12:56:02;6.40;;;2.50;;
59938;SDS011;45801;51.810;19.444;2023-06-22T12:58:28;6.70;;;2.60;;
59938;SDS011;45801;51.810;19.444;2023-06-22T13:00:55;7.30;;;3.00;;
59938;SDS011;45801;51.810;19.444;2023-06-22T13:03:21;6.50;;;2.90;;
59938;SDS011;45801;51.810;19.444;2023-06-22T13:05:50;6.60;;;2.50;;
59938;SDS011;45801;51.810;19.444;2023-06-22T13:08:16;6.40;;;2.90;;
59938;SDS011;45801;51.810;19.444;2023-06-22T13:10:43;7.10;;;2.90;;
59938;SDS011;45801;51.810;19.444;2023-06-22T13:13:09;6.10;;;2.50;;
59938;SDS011;45801;51.810;19.444;2023-06-22T13:15:36;6.90;;;2.90;;
59938;SDS011;45801;51.810;19.444;2023-06-22T13:18:02;7.40;;;3.10;;
59938;SDS011;45801;51.810;19.444;2023-06-22T13:20:29;5.90;;;2.70;;
59938;SDS011;45801;51.810;19.444;2023-06-22T13:22:55;8.50;;;2.70;;
59938;SDS011;45801;51.810;19.444;2023-06-22T13:25:23;6.60;;;2.60;;
59938;SDS011;45801;51.810;19.444;2023-06-22T13:27:52;5.50;;;2.50;;
59938;SDS011;45801;51.810;19.444;2023-06-22T13:30:19;7.30;;;2.80;;
59938;SDS011;45801;51.810;19.444;2023-06-22T13:32:45;6.70;;;2.50;;
59938;SDS011;45801;51.810;19.444;2023-06-22T13:35:12;7.30;;;2.80;;
59938;SDS011;45801;51.810;19.444;2023-06-22T13:37:39;6.20;;;2.80;;
59938;SDS011;45801;51.810;19.444;2023-06-22T13:40:06;5.40;;;2.40;;
59938;SDS011;45801;51.810;19.444;2023-06-22T13:42:33;6.00;;;2.60;;
59938;SDS011;45801;51.810;19.444;2023-06-22T13:45:00;6.10;;;2.60;;
59938;SDS011;45801;51.810;19.444;2023-06-22T13:47:26;6.90;;;2.70;;
59938;SDS011;45801;51.810;19.444;2023-06-22T13:49:53;7.30;;;2.90;;
59938;SDS011;45801;51.810;19.444;2023-06-22T13:52:20;6.00;;;2.30;;
59938;SDS011;45801;51.810;19.444;2023-06-22T13:54:46;6.20;;;2.80;;
59938;SDS011;45801;51.810;19.444;2023-06-22T13:57:13;6.70;;;2.40;;
59938;SDS011;45801;51.810;19.444;2023-06-22T13:59:39;5.80;;;2.40;;
59938;SDS011;45801;51.810;19.444;2023-06-22T14:02:06;5.70;;;2.30;;
59938;SDS011;45801;51.810;19.444;2023-06-22T14:04:32;5.30;;;2.50;;
59938;SDS011;45801;51.810;19.444;2023-06-22T14:06:59;6.40;;;2.60;;
59938;SDS011;45801;51.810;19.444;2023-06-22T14:09:26;6.40;;;2.70;;
59938;SDS011;45801;51.810;19.444;2023-06-22T14:11:54;6.50;;;2.30;;
59938;SDS011;45801;51.810;19.444;2023-06-22T14:14:21;7.60;;;2.70;;
59938;SDS011;45801;51.810;19.444;2023-06-22T14:16:47;6.80;;;2.80;;
59938;SDS011;45801;51.810;19.444;2023-06-22T14:19:18;7.50;;;2.90;;
59938;SDS011;45801;51.810;19.444;2023-06-22T14:21:45;5.80;;;2.50;;
59938;SDS011;45801;51.810;19.444;2023-06-22T14:24:11;6.30;;;2.20;;
59938;SDS011;45801;51.810;19.444;2023-06-22T14:26:38;7.90;;;2.40;;
59938;SDS011;45801;51.810;19.444;2023-06-22T14:29:04;7.10;;;2.50;;
59938;SDS011;45801;51.810;19.444;2023-06-22T14:31:31;6.80;;;2.90;;
59938;SDS011;45801;51.810;19.444;2023-06-22T14:33:57;6.60;;;2.70;;
59938;SDS011;45801;51.810;19.444;2023-06-22T14:36:24;6.00;;;2.50;;